createdAt,value
2022-11-25T00:05:09.094Z,2.20
2022-11-25T00:10:30.756Z,4.50
2022-11-25T00:15:52.506Z,2.80
2022-11-25T00:21:18.547Z,1.05
2022-11-25T00:26:40.498Z,2.67
2022-11-25T00:32:02.237Z,2.85
2022-11-25T00:37:23.968Z,3.17
2022-11-25T00:43:04.128Z,2.67
2022-11-25T00:48:25.861Z,2.90
2022-11-25T00:53:47.541Z,4.28
2022-11-25T00:59:09.663Z,2.42
2022-11-25T01:04:31.504Z,3.58
2022-11-25T01:09:53.197Z,2.13
2022-11-25T01:15:14.868Z,2.17
2022-11-25T01:20:36.507Z,1.30
2022-11-25T01:26:01.856Z,1.85
2022-11-25T01:31:25.676Z,3.35
2022-11-25T01:36:48.145Z,2.50
2022-11-25T01:42:09.860Z,1.35
2022-11-25T01:47:31.590Z,1.35
2022-11-25T01:52:55.780Z,1.27
2022-11-25T01:58:33.848Z,1.48
2022-11-25T02:03:59.230Z,1.35
2022-11-25T02:09:22.003Z,1.45
2022-11-25T02:14:45.883Z,2.35
2022-11-25T02:20:11.097Z,2.65
2022-11-25T02:25:35.820Z,2.10
2022-11-25T02:30:58.322Z,1.47
2022-11-25T02:36:22.791Z,1.45
2022-11-25T02:41:49.782Z,2.00
2022-11-25T02:47:11.500Z,1.30
2022-11-25T02:52:33.153Z,1.45
2022-11-25T02:57:54.878Z,0.70
2022-11-25T03:03:16.960Z,1.63
2022-11-25T03:08:38.783Z,0.73
2022-11-25T03:14:00.480Z,1.17
2022-11-25T03:19:22.160Z,0.93
2022-11-25T03:24:43.898Z,1.65
2022-11-25T03:30:08.414Z,1.00
2022-11-25T03:35:30.042Z,1.42
2022-11-25T03:40:51.673Z,1.52
2022-11-25T03:46:13.466Z,1.05
2022-11-25T03:51:35.759Z,1.60
2022-11-25T03:56:57.419Z,0.77
2022-11-25T04:02:19.106Z,0.60
2022-11-25T04:07:40.931Z,1.55
2022-11-25T04:13:02.665Z,0.85
2022-11-25T04:18:24.363Z,0.85
2022-11-25T04:23:46.107Z,1.05
2022-11-25T04:29:07.777Z,0.98
2022-11-25T04:34:29.459Z,0.63
2022-11-25T04:39:51.163Z,1.83
2022-11-25T04:45:23.871Z,0.57
2022-11-25T04:50:45.851Z,1.35
2022-11-25T04:56:08.208Z,1.73
2022-11-25T05:01:30.098Z,0.52
2022-11-25T05:06:51.899Z,0.45
2022-11-25T05:12:19.765Z,0.35
2022-11-25T05:17:41.442Z,0.68
2022-11-25T05:23:03.128Z,0.65
2022-11-25T05:28:24.843Z,0.30
2022-11-25T05:33:46.497Z,0.40
2022-11-25T05:39:08.164Z,1.23
2022-11-25T05:44:29.853Z,1.00
2022-11-25T05:49:51.494Z,0.70
2022-11-25T05:55:13.215Z,1.17
2022-11-25T06:00:35.307Z,0.80
2022-11-25T06:05:58.237Z,0.30
2022-11-25T06:11:20.028Z,0.35
2022-11-25T06:16:42.401Z,0.20
2022-11-25T06:22:04.287Z,0.40
2022-11-25T06:27:26.193Z,0.90
2022-11-25T06:32:48.315Z,0.13
2022-11-25T06:38:10.120Z,0.20
2022-11-25T06:43:32.887Z,0.55
2022-11-25T06:48:54.672Z,1.25
2022-11-25T06:54:16.494Z,0.25
2022-11-25T06:59:38.527Z,0.77
2022-11-25T07:05:00.216Z,0.65
2022-11-25T07:10:22.308Z,1.88
2022-11-25T07:15:44.001Z,0.65
2022-11-25T07:21:14.817Z,0.47
2022-11-25T07:26:38.596Z,0.47
2022-11-25T07:32:02.427Z,0.50
2022-11-25T07:37:27.845Z,0.93
2022-11-25T07:42:49.570Z,1.20
2022-11-25T07:48:11.211Z,7.25
2022-11-25T07:53:32.981Z,0.50
2022-11-25T07:58:55.704Z,3.33
2022-11-25T08:04:20.490Z,3.38
2022-11-25T08:09:42.670Z,1.73
2022-11-25T08:15:04.565Z,1.58
2022-11-25T08:20:26.293Z,4.78
2022-11-25T08:25:50.615Z,4.60
2022-11-25T08:31:21.809Z,1.35
2022-11-25T08:36:47.962Z,0.60
2022-11-25T08:42:10.590Z,1.63
2022-11-25T08:47:32.260Z,1.20
2022-11-25T08:52:54.002Z,0.70
2022-11-25T08:58:15.745Z,9.52
2022-11-25T09:03:40.682Z,10.02
2022-11-25T09:09:02.853Z,13.03
2022-11-25T09:14:24.647Z,16.35
2022-11-25T09:19:46.413Z,12.07
2022-11-25T09:25:08.425Z,9.55
2022-11-25T09:30:30.289Z,13.45
2022-11-25T09:35:52.092Z,18.30
2022-11-25T09:42:14.421Z,10.18
2022-11-25T09:47:57.272Z,10.80
2022-11-25T09:53:42.207Z,8.55
2022-11-25T09:59:27.141Z,9.30
2022-11-25T10:05:01.544Z,12.82
2022-11-25T10:10:29.169Z,11.23
2022-11-25T10:15:52.356Z,8.18
2022-11-25T10:21:14.091Z,11.13
2022-11-25T10:26:40.344Z,10.18
2022-11-25T10:32:23.110Z,8.95
2022-11-25T10:37:46.245Z,11.75
2022-11-25T10:43:14.559Z,15.93
2022-11-25T10:48:44.345Z,11.82
2022-11-25T10:54:13.225Z,14.10
2022-11-25T10:59:40.875Z,9.85
2022-11-25T11:05:08.249Z,7.38
2022-11-25T11:10:29.921Z,6.95
2022-11-25T11:15:53.260Z,6.93
2022-11-25T11:21:34.738Z,8.95
2022-11-25T11:27:16.542Z,4.78
2022-11-25T11:32:42.489Z,8.43
2022-11-25T11:38:38.275Z,8.43
2022-11-25T11:44:54.369Z,9.23
2022-11-25T11:50:27.106Z,6.57
2022-11-25T11:56:19.063Z,10.55
2022-11-25T12:01:59.498Z,11.20
2022-11-25T12:07:32.933Z,8.95
2022-11-25T12:13:23.401Z,21.05
2022-11-25T12:18:56.779Z,13.02
2022-11-25T12:24:55.904Z,11.55
2022-11-25T12:30:22.973Z,9.85
2022-11-25T12:36:26.721Z,9.63
2022-11-25T12:42:04.845Z,8.82
2022-11-25T12:47:27.170Z,10.60
2022-11-25T12:53:03.346Z,6.88
2022-11-25T13:04:26.808Z,2.90
2022-11-25T13:10:00.353Z,7.70
2022-11-25T13:15:28.344Z,5.10
2022-11-25T13:20:52.137Z,4.70
2022-11-25T13:26:28.833Z,6.30
2022-11-25T13:32:05.574Z,4.05
2022-11-25T13:37:41.564Z,4.18
2022-11-25T13:43:03.417Z,2.88
2022-11-25T13:48:32.186Z,2.95
2022-11-25T13:54:01.310Z,4.57
2022-11-25T13:59:48.814Z,3.05
2022-11-25T14:05:32.166Z,3.05
2022-11-25T14:11:05.965Z,2.85
2022-11-25T14:16:45.998Z,3.50
2022-11-25T14:22:22.714Z,2.47
2022-11-25T14:27:50.889Z,3.13
2022-11-25T14:33:15.576Z,3.47
2022-11-25T14:38:46.108Z,1.97
2022-11-25T14:44:21.919Z,1.92
2022-11-25T14:55:37.014Z,14.63
2022-11-25T15:00:58.600Z,5.35
2022-11-25T15:06:21.229Z,9.18
2022-11-25T15:11:43.318Z,14.50
2022-11-25T15:17:27.937Z,13.20
2022-11-25T15:22:52.049Z,11.90
2022-11-25T15:28:16.905Z,8.27
2022-11-25T15:33:39.437Z,9.27
2022-11-25T15:39:33.648Z,11.70
2022-11-25T15:45:03.807Z,10.20
2022-11-25T15:50:32.726Z,13.45
2022-11-25T15:56:01.008Z,11.48
2022-11-25T16:01:24.652Z,8.05
2022-11-25T16:06:54.839Z,12.57
2022-11-25T16:12:17.897Z,10.15
2022-11-25T16:17:39.709Z,8.40
2022-11-25T16:23:07.129Z,9.63
2022-11-25T16:28:29.170Z,12.13
2022-11-25T16:34:09.540Z,11.25
2022-11-25T16:39:31.191Z,12.60
2022-11-25T16:44:52.940Z,7.85
2022-11-25T16:50:16.371Z,10.75
2022-11-25T16:55:39.952Z,13.95
2022-11-25T17:01:02.547Z,6.85
2022-11-25T17:06:26.462Z,9.13
2022-11-25T17:11:54.907Z,7.63
2022-11-25T17:17:24.452Z,5.63
2022-11-25T17:22:46.533Z,9.48
2022-11-25T17:28:15.332Z,8.57
2022-11-25T17:33:37.896Z,18.55
2022-11-25T17:38:59.691Z,15.02
2022-11-25T17:44:27.680Z,9.80
2022-11-25T17:49:49.746Z,10.45
2022-11-25T17:55:12.092Z,11.52
2022-11-25T18:00:35.152Z,34.88
2022-11-25T18:05:56.816Z,64.97
2022-11-25T18:11:20.495Z,50.97
2022-11-25T18:16:42.739Z,52.72
2022-11-25T18:22:18.763Z,45.40
2022-11-25T18:27:41.061Z,53.70
2022-11-25T18:33:05.673Z,41.92
2022-11-25T18:38:27.446Z,39.40
2022-11-25T18:43:49.250Z,33.55
2022-11-25T18:49:15.031Z,47.75
2022-11-25T18:54:36.876Z,40.97
2022-11-25T19:00:31.542Z,34.53
2022-11-25T19:05:40.344Z,32.72
2022-11-25T19:11:02.068Z,27.20
2022-11-25T19:16:24.501Z,33.40
2022-11-25T19:21:46.262Z,32.97
2022-11-25T19:27:17.725Z,32.88
2022-11-25T19:32:39.546Z,32.03
2022-11-25T19:38:01.560Z,28.48
2022-11-25T19:43:27.182Z,52.72
2022-11-25T19:48:49.036Z,36.38
2022-11-25T19:54:16.058Z,40.95
2022-11-25T19:59:37.932Z,39.42
2022-11-25T20:04:59.844Z,34.13
2022-11-25T20:10:27.621Z,29.80
2022-11-25T20:15:49.913Z,45.97
2022-11-25T20:21:21.120Z,51.78
2022-11-25T20:26:48.520Z,50.03
2022-11-25T20:32:22.631Z,43.67
2022-11-25T20:37:51.681Z,48.05
2022-11-25T20:43:23.636Z,38.25
2022-11-25T20:48:46.193Z,31.70
2022-11-25T20:54:11.812Z,34.22
2022-11-25T20:59:33.793Z,41.10
2022-11-25T21:04:55.525Z,25.45
2022-11-25T21:10:29.108Z,29.48
2022-11-25T21:15:54.757Z,28.73
2022-11-25T21:21:30.129Z,23.13
2022-11-25T21:26:52.366Z,17.87
2022-11-25T21:32:25.978Z,18.15
2022-11-25T21:37:47.891Z,25.90
2022-11-25T21:43:22.054Z,28.60
2022-11-25T21:48:44.019Z,38.30
2022-11-25T21:54:05.925Z,27.77
2022-11-25T21:59:30.188Z,22.00
2022-11-25T22:04:52.317Z,22.30
2022-11-25T22:10:16.364Z,17.13
2022-11-25T22:15:38.122Z,22.27
2022-11-25T22:20:59.819Z,19.73
2022-11-25T22:26:32.374Z,17.02
2022-11-25T22:31:54.070Z,14.98
2022-11-25T22:37:18.350Z,13.38
2022-11-25T22:42:42.819Z,11.15
2022-11-25T22:48:06.222Z,13.10
2022-11-25T22:53:28.475Z,11.48
2022-11-25T22:58:50.207Z,11.27
2022-11-25T23:04:20.002Z,10.75
2022-11-25T23:09:42.215Z,7.85
2022-11-25T23:15:04.130Z,8.85
2022-11-25T23:20:37.552Z,9.95
2022-11-25T23:25:59.708Z,7.82
2022-11-25T23:31:21.596Z,9.30
2022-11-25T23:36:46.466Z,7.35
2022-11-25T23:42:18.963Z,6.17
2022-11-25T23:47:42.435Z,8.07
2022-11-25T23:53:07.376Z,9.38
2022-11-25T23:58:29.247Z,4.30
